createdAt,value
2018-04-26T00:00:04.107Z,5.50
2018-04-26T00:01:04.087Z,5.30
2018-04-26T00:02:04.082Z,5.20
2018-04-26T00:03:04.058Z,4.90
2018-04-26T00:04:04.039Z,4.90
2018-04-26T00:05:04.026Z,5.50
2018-04-26T00:06:04.007Z,5.40
2018-04-26T00:07:03.991Z,5.30
2018-04-26T00:08:03.967Z,5.30
2018-04-26T00:09:03.953Z,5.90
2018-04-26T00:10:03.936Z,6.00
2018-04-26T00:11:03.922Z,5.50
2018-04-26T00:12:03.902Z,5.00
2018-04-26T00:13:03.984Z,5.50
2018-04-26T00:14:03.868Z,5.40
2018-04-26T00:15:03.859Z,5.40
2018-04-26T00:16:03.829Z,5.40
2018-04-26T00:17:03.823Z,5.30
2018-04-26T00:18:03.799Z,5.30
2018-04-26T00:19:03.879Z,5.20
2018-04-26T00:20:03.763Z,5.00
2018-04-26T00:21:03.899Z,5.10
2018-04-26T00:22:03.726Z,5.20
2018-04-26T00:23:03.709Z,4.70
2018-04-26T00:24:03.698Z,5.10
2018-04-26T00:25:03.780Z,5.10
2018-04-26T00:26:03.657Z,5.10
2018-04-26T00:27:03.644Z,5.10
2018-04-26T00:28:03.622Z,5.20
2018-04-26T00:29:03.710Z,5.00
2018-04-26T00:30:03.588Z,4.80
2018-04-26T00:31:03.674Z,5.20
2018-04-26T00:32:03.559Z,5.20
2018-04-26T00:33:03.536Z,4.90
2018-04-26T00:34:03.529Z,5.00
2018-04-26T00:35:03.610Z,4.90
2018-04-26T00:36:03.487Z,4.30
2018-04-26T00:37:03.518Z,5.00
2018-04-26T00:38:03.450Z,4.60
2018-04-26T00:39:03.532Z,4.80
2018-04-26T00:40:03.417Z,5.00
2018-04-26T00:41:03.401Z,5.00
2018-04-26T00:42:03.377Z,4.90
2018-04-26T00:43:03.414Z,5.00
2018-04-26T00:44:03.350Z,4.90
2018-04-26T00:45:03.379Z,5.40
2018-04-26T00:46:03.312Z,5.10
2018-04-26T00:47:03.350Z,4.30
2018-04-26T00:48:03.282Z,5.20
2018-04-26T00:49:03.309Z,4.30
2018-04-26T00:50:03.238Z,4.40
2018-04-26T00:51:03.227Z,4.40
2018-04-26T00:52:03.203Z,4.30
2018-04-26T00:53:03.187Z,4.80
2018-04-26T00:54:03.175Z,4.90
2018-04-26T00:55:03.151Z,5.10
2018-04-26T00:56:03.138Z,4.40
2018-04-26T00:57:03.117Z,4.40
2018-04-26T00:58:03.098Z,4.70
2018-04-26T00:59:03.086Z,4.90
2018-04-26T01:00:03.065Z,4.40
2018-04-26T01:01:03.047Z,4.20
2018-04-26T01:02:03.036Z,4.10
2018-04-26T01:03:03.016Z,4.60
2018-04-26T01:04:03.000Z,4.40
2018-04-26T01:05:02.978Z,4.50
2018-04-26T01:06:02.961Z,4.70
2018-04-26T01:07:02.949Z,4.70
2018-04-26T01:08:02.928Z,4.90
2018-04-26T01:09:02.910Z,4.50
2018-04-26T01:10:02.907Z,4.40
2018-04-26T01:11:02.878Z,4.80
2018-04-26T01:12:02.860Z,4.50
2018-04-26T01:13:02.849Z,4.30
2018-04-26T01:14:02.832Z,4.60
2018-04-26T01:15:02.810Z,4.50
2018-04-26T01:16:02.788Z,4.50
2018-04-26T01:17:02.775Z,4.40
2018-04-26T01:18:02.759Z,4.80
2018-04-26T01:19:02.739Z,4.70
2018-04-26T01:20:02.798Z,4.50
2018-04-26T01:21:02.705Z,4.70
2018-04-26T01:22:02.688Z,4.60
2018-04-26T01:23:02.668Z,4.00
2018-04-26T01:24:02.649Z,4.10
2018-04-26T01:25:02.636Z,4.50
2018-04-26T01:26:02.614Z,4.40
2018-04-26T01:27:02.598Z,4.50
2018-04-26T01:28:02.583Z,4.20
2018-04-26T01:29:02.571Z,4.80
2018-04-26T01:30:02.553Z,4.50
2018-04-26T01:31:02.538Z,4.60
2018-04-26T01:32:02.513Z,4.80
2018-04-26T01:33:02.498Z,4.80
2018-04-26T01:34:02.480Z,4.40
2018-04-26T01:35:02.457Z,4.10
2018-04-26T01:36:02.452Z,4.60
2018-04-26T01:37:02.435Z,4.20
2018-04-26T01:38:02.409Z,4.10
2018-04-26T01:39:02.395Z,3.80
2018-04-26T01:40:02.377Z,4.50
2018-04-26T01:41:02.357Z,4.90
2018-04-26T01:42:02.341Z,4.00
2018-04-26T01:43:02.322Z,4.50
2018-04-26T01:44:02.309Z,4.60
2018-04-26T01:45:02.293Z,4.60
2018-04-26T01:46:02.273Z,4.60
2018-04-26T01:47:02.254Z,4.50
2018-04-26T01:48:02.237Z,4.00
2018-04-26T01:49:02.220Z,4.70
2018-04-26T01:50:02.202Z,4.50
2018-04-26T01:51:02.189Z,4.10
2018-04-26T01:52:02.169Z,4.50
2018-04-26T01:53:02.155Z,4.40
2018-04-26T01:54:02.134Z,4.40
2018-04-26T01:55:02.121Z,4.70
2018-04-26T01:56:02.098Z,4.50
2018-04-26T01:57:02.089Z,4.20
2018-04-26T01:58:02.067Z,4.40
2018-04-26T01:59:02.045Z,4.60
2018-04-26T02:00:02.043Z,4.80
2018-04-26T02:01:02.011Z,4.80
2018-04-26T02:02:01.997Z,4.90
2018-04-26T02:03:01.976Z,4.60
2018-04-26T02:04:01.969Z,4.50
2018-04-26T02:05:01.946Z,4.80
2018-04-26T02:06:01.926Z,4.90
2018-04-26T02:07:01.909Z,4.80
2018-04-26T02:08:01.897Z,4.90
2018-04-26T02:09:01.879Z,5.00
2018-04-26T02:10:01.858Z,5.00
2018-04-26T02:11:01.843Z,5.10
2018-04-26T02:12:01.826Z,4.70
2018-04-26T02:13:01.816Z,4.60
2018-04-26T02:14:01.789Z,4.60
2018-04-26T02:15:01.778Z,4.90
2018-04-26T02:16:01.758Z,5.00
2018-04-26T02:17:01.739Z,4.90
2018-04-26T02:18:01.717Z,4.60
2018-04-26T02:19:01.705Z,4.90
2018-04-26T02:20:01.690Z,4.70
2018-04-26T02:21:01.670Z,4.90
2018-04-26T02:22:01.649Z,4.50
2018-04-26T02:23:01.637Z,4.50
2018-04-26T02:24:01.621Z,4.80
2018-04-26T02:25:01.596Z,4.70
2018-04-26T02:26:01.580Z,4.80
2018-04-26T02:27:01.570Z,4.70
2018-04-26T02:28:01.551Z,4.90
2018-04-26T02:29:01.530Z,4.70
2018-04-26T02:30:01.510Z,4.30
2018-04-26T02:31:01.492Z,5.10
2018-04-26T02:32:01.482Z,4.30
2018-04-26T02:33:01.461Z,4.70
2018-04-26T02:34:01.441Z,4.70
2018-04-26T02:35:01.423Z,4.70
2018-04-26T02:36:01.410Z,5.10
2018-04-26T02:37:01.393Z,5.20
2018-04-26T02:38:01.375Z,4.80
2018-04-26T02:39:01.350Z,4.90
2018-04-26T02:40:01.337Z,4.80
2018-04-26T02:41:01.321Z,5.20
2018-04-26T02:42:01.301Z,5.30
2018-04-26T02:43:01.288Z,4.80
2018-04-26T02:44:01.271Z,4.80
2018-04-26T02:45:01.251Z,5.20
2018-04-26T02:46:01.231Z,5.40
2018-04-26T02:47:01.219Z,5.30
2018-04-26T02:48:01.210Z,5.20
2018-04-26T02:49:01.180Z,5.00
2018-04-26T02:50:01.158Z,5.10
2018-04-26T02:51:01.141Z,5.00
2018-04-26T02:52:01.124Z,5.30
2018-04-26T02:53:01.107Z,5.40
2018-04-26T02:54:01.088Z,4.90
2018-04-26T02:55:01.077Z,5.20
2018-04-26T02:56:01.052Z,5.30
2018-04-26T02:57:01.038Z,5.10
2018-04-26T02:58:01.016Z,5.80
2018-04-26T02:59:01.001Z,5.30
2018-04-26T03:00:00.988Z,5.50
2018-04-26T03:01:00.966Z,4.90
2018-04-26T03:02:00.947Z,4.90
2018-04-26T03:03:00.935Z,5.30
2018-04-26T03:04:00.912Z,5.10
2018-04-26T03:05:00.895Z,4.90
2018-04-26T03:06:00.880Z,5.70
2018-04-26T03:07:00.859Z,5.10
2018-04-26T03:08:00.847Z,5.40
2018-04-26T03:09:00.824Z,4.80
2018-04-26T03:10:00.807Z,5.30
2018-04-26T03:11:00.792Z,5.70
2018-04-26T03:12:00.776Z,5.10
2018-04-26T03:13:00.758Z,5.70
2018-04-26T03:14:00.743Z,5.30
2018-04-26T03:15:00.717Z,6.00
2018-04-26T03:16:00.701Z,5.70
2018-04-26T03:17:00.685Z,5.60
2018-04-26T03:18:00.671Z,5.50
2018-04-26T03:19:00.647Z,4.90
2018-04-26T03:20:00.885Z,5.30
2018-04-26T03:21:00.618Z,5.30
2018-04-26T03:22:00.594Z,5.80
2018-04-26T03:23:00.577Z,5.70
2018-04-26T03:24:00.558Z,5.00
2018-04-26T03:25:00.539Z,5.90
2018-04-26T03:26:00.526Z,5.70
2018-04-26T03:27:00.508Z,5.80
2018-04-26T03:28:00.496Z,5.10
2018-04-26T03:29:00.482Z,5.20
2018-04-26T03:30:00.454Z,5.80
2018-04-26T03:31:00.533Z,5.70
2018-04-26T03:32:00.417Z,5.00
2018-04-26T03:33:00.399Z,5.70
2018-04-26T03:34:00.381Z,5.70
2018-04-26T03:35:00.362Z,5.80
2018-04-26T03:36:00.356Z,5.30
2018-04-26T03:37:00.335Z,5.40
2018-04-26T03:38:00.315Z,5.20
2018-04-26T03:39:00.294Z,6.20
2018-04-26T03:40:00.277Z,5.60
2018-04-26T03:41:00.269Z,6.00
2018-04-26T03:42:00.241Z,4.60
2018-04-26T03:43:00.222Z,5.20
2018-04-26T03:44:00.202Z,5.40
2018-04-26T03:45:00.185Z,5.60
2018-04-26T03:46:00.170Z,5.10
2018-04-26T03:47:00.148Z,5.80
2018-04-26T03:48:00.135Z,5.90
2018-04-26T03:49:00.118Z,5.60
2018-04-26T03:50:00.098Z,5.70
2018-04-26T03:51:00.080Z,5.60
2018-04-26T03:52:00.058Z,5.40
2018-04-26T03:53:00.041Z,5.00
2018-04-26T03:54:00.031Z,5.60
2018-04-26T03:55:00.010Z,5.40
2018-04-26T03:55:59.987Z,6.10
2018-04-26T03:56:59.970Z,5.80
2018-04-26T03:57:59.949Z,6.20
2018-04-26T03:58:59.937Z,5.50
2018-04-26T03:59:59.917Z,6.10
2018-04-26T04:00:59.900Z,6.60
2018-04-26T04:01:59.880Z,6.50
2018-04-26T04:02:59.862Z,6.50
2018-04-26T04:03:59.846Z,6.40
2018-04-26T04:04:59.830Z,6.20
2018-04-26T04:05:59.807Z,6.70
2018-04-26T04:06:59.790Z,6.40
2018-04-26T04:07:59.777Z,6.80
2018-04-26T04:08:59.755Z,6.60
2018-04-26T04:09:59.738Z,7.20
2018-04-26T04:10:59.723Z,6.90
2018-04-26T04:11:59.704Z,6.80
2018-04-26T04:12:59.685Z,6.90
2018-04-26T04:13:59.670Z,6.90
2018-04-26T04:14:59.652Z,6.40
2018-04-26T04:15:59.647Z,6.60
2018-04-26T04:16:59.618Z,6.70
2018-04-26T04:17:59.592Z,7.10
2018-04-26T04:18:59.584Z,6.70
2018-04-26T04:19:59.559Z,6.30
2018-04-26T04:20:59.544Z,5.10
2018-04-26T04:21:59.548Z,5.10
2018-04-26T04:22:59.506Z,5.10
2018-04-26T04:23:59.486Z,5.50
2018-04-26T04:24:59.476Z,4.60
2018-04-26T04:25:59.454Z,5.30
2018-04-26T04:26:59.441Z,5.30
2018-04-26T04:27:59.442Z,4.90
2018-04-26T04:28:59.403Z,5.50
2018-04-26T04:29:59.382Z,11.00
2018-04-26T04:30:59.368Z,6.60
2018-04-26T04:31:59.348Z,6.20
2018-04-26T04:32:59.327Z,6.50
2018-04-26T04:33:59.309Z,6.20
2018-04-26T04:34:59.294Z,6.20
2018-04-26T04:35:59.280Z,6.60
2018-04-26T04:36:59.266Z,6.80
2018-04-26T04:37:59.237Z,7.20
2018-04-26T04:38:59.231Z,7.10
2018-04-26T04:39:59.210Z,6.70
2018-04-26T04:40:59.188Z,7.10
2018-04-26T04:41:59.166Z,6.90
2018-04-26T04:42:59.160Z,6.90
2018-04-26T04:43:59.142Z,7.20
2018-04-26T04:44:59.118Z,6.90
2018-04-26T04:45:59.100Z,7.20
2018-04-26T04:46:59.080Z,7.30
2018-04-26T04:47:59.130Z,6.90
2018-04-26T04:48:59.049Z,6.30
2018-04-26T04:49:59.027Z,7.20
2018-04-26T04:50:59.012Z,7.40
2018-04-26T04:51:59.000Z,7.30
2018-04-26T04:52:58.973Z,7.20
2018-04-26T04:53:58.958Z,7.20
2018-04-26T04:54:58.937Z,7.20
2018-04-26T04:55:58.917Z,6.80
2018-04-26T04:56:58.897Z,7.20
2018-04-26T04:57:58.882Z,6.90
2018-04-26T04:58:58.867Z,7.20
2018-04-26T04:59:58.998Z,6.60
2018-04-26T05:00:58.833Z,6.40
2018-04-26T05:01:58.870Z,5.90
2018-04-26T05:02:58.801Z,6.30
2018-04-26T05:03:58.777Z,5.60
2018-04-26T05:04:58.756Z,5.50
2018-04-26T05:05:58.748Z,4.80
2018-04-26T05:06:58.773Z,4.60
2018-04-26T05:07:58.713Z,4.70
2018-04-26T05:08:58.687Z,4.50
2018-04-26T05:09:58.719Z,4.90
2018-04-26T05:10:58.647Z,4.20
2018-04-26T05:11:58.630Z,4.70
2018-04-26T05:12:58.617Z,3.90
2018-04-26T05:13:58.648Z,4.00
2018-04-26T05:14:58.587Z,3.60
2018-04-26T05:15:58.714Z,4.10
2018-04-26T05:16:58.543Z,3.90
2018-04-26T05:17:58.585Z,3.70
2018-04-26T05:18:58.505Z,3.70
2018-04-26T05:19:58.636Z,4.20
2018-04-26T05:20:58.468Z,3.80
2018-04-26T05:21:58.494Z,3.60
2018-04-26T05:22:58.438Z,3.80
2018-04-26T05:23:58.416Z,3.90
2018-04-26T05:24:58.414Z,3.80
2018-04-26T05:25:58.429Z,3.60
2018-04-26T05:26:58.358Z,3.80
2018-04-26T05:27:58.347Z,3.90
2018-04-26T05:28:58.328Z,3.20
2018-04-26T05:29:58.310Z,3.80
2018-04-26T05:30:58.286Z,3.50
2018-04-26T05:31:58.323Z,3.90
2018-04-26T05:32:58.253Z,4.50
2018-04-26T05:33:58.235Z,4.10
2018-04-26T05:34:58.216Z,3.80
2018-04-26T05:35:58.209Z,4.00
2018-04-26T05:36:58.177Z,3.90
2018-04-26T05:37:58.172Z,3.70
2018-04-26T05:38:58.148Z,3.70
2018-04-26T05:39:58.127Z,4.00
2018-04-26T05:40:58.118Z,3.90
2018-04-26T05:41:58.092Z,3.90
2018-04-26T05:42:58.070Z,4.00
2018-04-26T05:43:58.052Z,4.00
2018-04-26T05:44:58.039Z,4.00
2018-04-26T05:45:58.018Z,4.00
2018-04-26T05:46:58.005Z,4.40
2018-04-26T05:47:57.989Z,4.30
2018-04-26T05:48:57.964Z,3.50
2018-04-26T05:49:57.951Z,3.90
2018-04-26T05:50:57.933Z,3.80
2018-04-26T05:51:57.922Z,4.30
2018-04-26T05:52:57.901Z,4.70
2018-04-26T05:53:57.881Z,4.00
2018-04-26T05:54:57.858Z,4.80
2018-04-26T05:55:57.988Z,4.30
2018-04-26T05:56:57.835Z,4.60
2018-04-26T05:57:57.807Z,4.30
2018-04-26T05:58:57.792Z,4.30
2018-04-26T05:59:57.782Z,4.50
2018-04-26T06:00:57.763Z,4.70
2018-04-26T06:01:57.740Z,4.90
2018-04-26T06:02:57.721Z,5.00
2018-04-26T06:03:57.705Z,5.10
2018-04-26T06:04:57.685Z,5.10
2018-04-26T06:05:57.666Z,5.20
2018-04-26T06:06:57.650Z,5.70
2018-04-26T06:07:57.638Z,5.70
2018-04-26T06:08:57.614Z,5.40
2018-04-26T06:09:57.596Z,5.60
2018-04-26T06:10:57.583Z,5.40
2018-04-26T06:11:57.560Z,5.70
2018-04-26T06:12:57.547Z,6.00
2018-04-26T06:13:57.529Z,5.90
2018-04-26T06:14:57.509Z,5.40
2018-04-26T06:15:57.504Z,6.10
2018-04-26T06:16:57.566Z,6.50
2018-04-26T06:17:57.465Z,6.10
2018-04-26T06:18:57.455Z,5.80
2018-04-26T06:19:57.428Z,6.10
2018-04-26T06:20:57.422Z,6.60
2018-04-26T06:21:57.391Z,6.60
2018-04-26T06:22:57.373Z,5.90
2018-04-26T06:23:57.357Z,6.50
2018-04-26T06:24:57.370Z,5.70
2018-04-26T06:25:57.319Z,5.20
2018-04-26T06:26:57.306Z,6.70
2018-04-26T06:27:57.347Z,6.20
2018-04-26T06:28:57.274Z,5.90
2018-04-26T06:29:57.249Z,6.00
2018-04-26T06:30:57.299Z,6.50
2018-04-26T06:31:57.230Z,5.60
2018-04-26T06:32:57.203Z,5.90
2018-04-26T06:33:57.284Z,6.30
2018-04-26T06:34:57.168Z,5.90
2018-04-26T06:35:57.150Z,6.00
2018-04-26T06:36:57.181Z,5.90
2018-04-26T06:37:57.118Z,6.40
2018-04-26T06:38:57.100Z,6.40
2018-04-26T06:39:57.080Z,6.20
2018-04-26T06:40:57.066Z,6.20
2018-04-26T06:41:57.051Z,6.50
2018-04-26T06:42:57.038Z,6.10
2018-04-26T06:43:57.063Z,5.90
2018-04-26T06:44:57.002Z,6.30
2018-04-26T06:45:56.979Z,5.80
2018-04-26T06:46:56.964Z,6.00
2018-04-26T06:47:57.111Z,6.50
2018-04-26T06:48:56.940Z,6.50
2018-04-26T06:49:56.914Z,5.90
2018-04-26T06:50:56.900Z,6.40
2018-04-26T06:51:56.883Z,6.20
2018-04-26T06:52:56.867Z,5.90
2018-04-26T06:53:56.848Z,5.80
2018-04-26T06:54:56.832Z,5.00
2018-04-26T06:55:56.823Z,5.50
2018-04-26T06:56:56.800Z,5.90
2018-04-26T06:57:56.788Z,5.70
2018-04-26T06:58:56.773Z,5.10
2018-04-26T06:59:56.753Z,5.60
2018-04-26T07:00:56.742Z,5.70
2018-04-26T07:01:56.722Z,5.60
2018-04-26T07:02:56.708Z,5.80
2018-04-26T07:03:56.689Z,5.10
2018-04-26T07:04:56.670Z,5.60
2018-04-26T07:05:56.657Z,5.70
2018-04-26T07:06:56.646Z,5.70
2018-04-26T07:07:56.634Z,5.40
2018-04-26T07:08:56.606Z,5.90
2018-04-26T07:09:56.601Z,6.30
2018-04-26T07:10:56.584Z,5.80
2018-04-26T07:11:56.566Z,5.80
2018-04-26T07:12:56.546Z,5.70
2018-04-26T07:13:56.531Z,5.50
2018-04-26T07:14:56.510Z,5.80
2018-04-26T07:15:56.496Z,5.40
2018-04-26T07:16:56.488Z,6.20
2018-04-26T07:17:56.474Z,5.20
2018-04-26T07:18:56.451Z,5.70
2018-04-26T07:19:56.432Z,6.20
2018-04-26T07:20:56.417Z,5.30
2018-04-26T07:21:56.411Z,5.90
2018-04-26T07:22:56.390Z,5.70
2018-04-26T07:23:56.379Z,4.90
2018-04-26T07:24:56.360Z,6.00
2018-04-26T07:25:56.350Z,5.30
2018-04-26T07:26:56.339Z,5.30
2018-04-26T07:27:56.332Z,5.70
2018-04-26T07:28:56.323Z,5.50
2018-04-26T07:29:56.300Z,5.50
2018-04-26T07:30:56.290Z,5.60
2018-04-26T07:31:56.274Z,4.80
2018-04-26T07:32:56.265Z,5.20
2018-04-26T07:33:56.255Z,5.30
2018-04-26T07:34:56.255Z,4.80
2018-04-26T07:35:56.236Z,4.80
2018-04-26T07:36:56.219Z,5.30
2018-04-26T07:37:56.208Z,5.50
2018-04-26T07:38:56.196Z,5.30
2018-04-26T07:39:56.187Z,5.50
2018-04-26T07:40:56.174Z,5.40
2018-04-26T07:41:56.165Z,5.00
2018-04-26T07:42:56.149Z,5.40
2018-04-26T07:43:56.142Z,5.40
2018-04-26T07:44:56.126Z,5.20
2018-04-26T07:45:56.110Z,5.10
2018-04-26T07:46:56.095Z,5.00
2018-04-26T07:47:56.085Z,5.40
2018-04-26T07:48:56.070Z,5.10
2018-04-26T07:49:56.056Z,5.40
2018-04-26T07:50:56.041Z,5.80
2018-04-26T07:51:56.029Z,5.20
2018-04-26T07:52:56.016Z,5.00
2018-04-26T07:53:56.001Z,5.40
2018-04-26T07:54:55.989Z,5.30
2018-04-26T07:55:55.986Z,5.40
2018-04-26T07:56:55.962Z,5.30
2018-04-26T07:57:55.948Z,4.90
2018-04-26T07:58:55.939Z,4.60
2018-04-26T07:59:55.932Z,4.70
2018-04-26T08:00:56.072Z,4.80
2018-04-26T08:01:55.907Z,4.60
2018-04-26T08:02:56.104Z,4.60
2018-04-26T08:03:55.880Z,5.20
2018-04-26T08:04:55.871Z,4.70
2018-04-26T08:05:55.867Z,5.00
2018-04-26T08:06:55.843Z,5.20
2018-04-26T08:07:55.831Z,4.80
2018-04-26T08:08:55.821Z,5.00
2018-04-26T08:09:55.811Z,5.10
2018-04-26T08:10:55.800Z,4.80
2018-04-26T08:11:55.788Z,4.80
2018-04-26T08:12:55.785Z,5.20
2018-04-26T08:13:55.770Z,5.10
2018-04-26T08:14:55.759Z,4.80
2018-04-26T08:15:55.761Z,4.80
2018-04-26T08:16:55.743Z,4.80
2018-04-26T08:17:55.734Z,4.90
2018-04-26T08:18:55.732Z,4.60
2018-04-26T08:19:55.720Z,5.00
2018-04-26T08:20:55.711Z,4.30
2018-04-26T08:21:55.702Z,4.60
2018-04-26T08:22:55.689Z,4.90
2018-04-26T08:23:55.685Z,4.20
2018-04-26T08:24:55.735Z,4.40
2018-04-26T08:25:55.668Z,4.80
2018-04-26T08:26:55.656Z,4.30
2018-04-26T08:27:55.642Z,4.70
2018-04-26T08:28:55.634Z,4.50
2018-04-26T08:29:55.622Z,4.30
2018-04-26T08:30:55.619Z,4.40
2018-04-26T08:31:55.611Z,3.90
2018-04-26T08:32:55.595Z,4.10
2018-04-26T08:33:55.587Z,3.70
2018-04-26T08:34:55.580Z,3.60
2018-04-26T08:35:55.577Z,4.10
2018-04-26T08:36:55.607Z,3.90
2018-04-26T08:37:55.556Z,4.20
2018-04-26T08:38:55.557Z,4.30
2018-04-26T08:39:55.783Z,4.20
2018-04-26T08:40:55.541Z,3.80
2018-04-26T08:41:55.529Z,3.90
2018-04-26T08:42:55.525Z,3.80
2018-04-26T08:43:55.583Z,3.60
2018-04-26T08:44:55.511Z,3.80
2018-04-26T08:45:55.631Z,3.60
2018-04-26T08:46:55.534Z,3.90
2018-04-26T08:47:55.487Z,3.60
2018-04-26T08:48:55.483Z,3.60
2018-04-26T08:49:55.520Z,3.30
2018-04-26T08:50:55.462Z,3.00
2018-04-26T08:51:55.465Z,3.30
2018-04-26T08:52:55.462Z,2.90
2018-04-26T08:53:55.449Z,3.00
2018-04-26T08:54:55.442Z,3.60
2018-04-26T08:55:55.430Z,2.90
2018-04-26T08:56:55.424Z,3.10
2018-04-26T08:57:55.428Z,3.50
2018-04-26T08:58:55.414Z,3.30
2018-04-26T08:59:55.403Z,3.30
2018-04-26T09:00:55.448Z,3.10
2018-04-26T09:01:55.396Z,2.90
2018-04-26T09:02:55.381Z,2.90
2018-04-26T09:03:55.377Z,3.20
2018-04-26T09:04:55.372Z,3.60
2018-04-26T09:05:55.368Z,3.70
2018-04-26T09:06:55.356Z,3.60
2018-04-26T09:07:55.349Z,3.80
2018-04-26T09:08:55.345Z,3.50
2018-04-26T09:09:55.340Z,4.10
2018-04-26T09:10:55.330Z,4.50
2018-04-26T09:11:55.322Z,4.30
2018-04-26T09:12:55.311Z,4.60
2018-04-26T09:13:55.302Z,4.30
2018-04-26T09:14:55.291Z,4.60
2018-04-26T09:15:55.386Z,5.00
2018-04-26T09:16:55.277Z,4.80
2018-04-26T09:17:55.269Z,5.40
2018-04-26T09:18:55.262Z,4.90
2018-04-26T09:19:55.249Z,5.10
2018-04-26T09:20:55.243Z,5.80
2018-04-26T09:21:55.258Z,5.20
2018-04-26T09:22:55.221Z,6.50
2018-04-26T09:23:55.210Z,6.40
2018-04-26T09:24:55.197Z,6.40
2018-04-26T09:25:55.189Z,6.70
2018-04-26T09:26:55.174Z,6.70
2018-04-26T09:27:55.159Z,6.40
2018-04-26T09:28:55.157Z,6.70
2018-04-26T09:29:55.136Z,7.10
2018-04-26T09:30:55.130Z,7.00
2018-04-26T09:31:55.111Z,6.70
2018-04-26T09:32:55.098Z,7.60
2018-04-26T09:33:55.090Z,6.50
2018-04-26T09:34:55.074Z,6.80
2018-04-26T09:35:55.056Z,6.70
2018-04-26T09:36:55.042Z,6.20
2018-04-26T09:37:55.030Z,6.40
2018-04-26T09:38:55.020Z,5.10
2018-04-26T09:39:55.010Z,5.60
2018-04-26T09:40:54.991Z,5.50
2018-04-26T09:41:54.980Z,5.30
2018-04-26T09:42:54.981Z,5.10
2018-04-26T09:43:54.960Z,5.40
2018-04-26T09:44:54.973Z,5.10
2018-04-26T09:45:54.940Z,5.40
2018-04-26T09:46:54.920Z,4.80
2018-04-26T09:47:54.911Z,4.90
2018-04-26T09:48:54.900Z,5.20
2018-04-26T09:49:54.885Z,4.90
2018-04-26T09:50:54.875Z,5.00
2018-04-26T09:51:54.858Z,5.50
2018-04-26T09:52:54.850Z,4.60
2018-04-26T09:53:54.837Z,4.60
2018-04-26T09:54:54.831Z,4.70
2018-04-26T09:55:54.819Z,4.60
2018-04-26T09:56:54.834Z,4.00
2018-04-26T09:57:54.798Z,5.00
2018-04-26T09:58:54.790Z,5.00
2018-04-26T09:59:54.780Z,4.10
2018-04-26T10:00:54.774Z,4.70
2018-04-26T10:01:54.757Z,4.10
2018-04-26T10:02:54.750Z,4.00
2018-04-26T10:03:54.741Z,4.10
2018-04-26T10:04:54.727Z,4.30
2018-04-26T10:05:54.719Z,4.20
2018-04-26T10:06:54.722Z,4.20
2018-04-26T10:07:54.690Z,4.60
2018-04-26T10:08:54.679Z,4.50
2018-04-26T10:09:54.667Z,4.50
2018-04-26T10:10:54.658Z,4.10
2018-04-26T10:11:54.658Z,4.40
2018-04-26T10:12:54.634Z,4.50
2018-04-26T10:13:54.628Z,4.20
2018-04-26T10:14:54.616Z,4.50
2018-04-26T10:15:54.618Z,4.40
2018-04-26T10:16:54.664Z,4.10
2018-04-26T10:17:54.591Z,4.60
2018-04-26T10:18:54.574Z,4.10
2018-04-26T10:19:54.565Z,4.50
2018-04-26T10:20:54.549Z,4.60
2018-04-26T10:21:54.537Z,4.70
2018-04-26T10:22:54.534Z,5.10
2018-04-26T10:23:54.519Z,4.90
2018-04-26T10:24:54.509Z,4.60
2018-04-26T10:25:54.510Z,4.70
2018-04-26T10:26:54.489Z,5.30
2018-04-26T10:27:54.478Z,5.30
2018-04-26T10:28:54.459Z,4.90
2018-04-26T10:29:54.484Z,5.00
2018-04-26T10:30:54.451Z,5.30
2018-04-26T10:31:54.425Z,5.50
2018-04-26T10:32:54.426Z,4.90
2018-04-26T10:33:54.486Z,4.70
2018-04-26T10:34:54.389Z,4.20
2018-04-26T10:35:54.419Z,5.00
2018-04-26T10:36:54.363Z,4.60
2018-04-26T10:37:54.407Z,4.80
2018-04-26T10:38:54.339Z,5.30
2018-04-26T10:39:54.329Z,5.30
2018-04-26T10:40:54.318Z,5.70
2018-04-26T10:41:54.443Z,5.10
2018-04-26T10:42:54.296Z,5.40
2018-04-26T10:43:54.332Z,5.50
2018-04-26T10:44:54.269Z,5.10
2018-04-26T10:45:54.375Z,5.70
2018-04-26T10:46:54.249Z,5.20
2018-04-26T10:47:54.239Z,5.30
2018-04-26T10:48:54.223Z,5.30
2018-04-26T10:49:54.216Z,5.20
2018-04-26T10:50:54.199Z,5.70
2018-04-26T10:51:54.188Z,5.50
2018-04-26T10:52:54.257Z,5.30
2018-04-26T10:53:54.165Z,5.10
2018-04-26T10:54:54.152Z,5.60
2018-04-26T10:55:54.149Z,5.60
2018-04-26T10:56:54.138Z,5.00
2018-04-26T10:57:54.123Z,5.30
2018-04-26T10:58:54.117Z,4.90
2018-04-26T10:59:54.101Z,4.60
2018-04-26T11:00:54.090Z,4.80
2018-04-26T11:01:54.078Z,4.80
2018-04-26T11:02:54.073Z,4.80
2018-04-26T11:03:54.057Z,5.30
2018-04-26T11:04:54.048Z,5.40
2018-04-26T11:05:54.034Z,4.70
2018-04-26T11:06:54.039Z,5.20
2018-04-26T11:07:54.012Z,4.80
2018-04-26T11:08:54.007Z,4.60
2018-04-26T11:09:53.980Z,5.20
2018-04-26T11:10:53.967Z,4.90
2018-04-26T11:11:53.961Z,4.60
2018-04-26T11:12:53.947Z,5.10
2018-04-26T11:13:53.937Z,4.70
2018-04-26T11:14:53.929Z,4.10
2018-04-26T11:15:53.915Z,4.70
2018-04-26T11:16:53.902Z,4.50
2018-04-26T11:17:53.898Z,4.50
2018-04-26T11:18:53.879Z,4.20
2018-04-26T11:19:53.871Z,4.20
2018-04-26T11:20:53.861Z,3.80
2018-04-26T11:21:53.848Z,3.40
2018-04-26T11:22:53.830Z,3.00
2018-04-26T11:23:53.820Z,2.90
2018-04-26T11:24:53.812Z,3.00
2018-04-26T11:25:53.802Z,2.90
2018-04-26T11:26:53.782Z,2.90
2018-04-26T11:27:53.767Z,2.70
2018-04-26T11:28:53.759Z,2.80
2018-04-26T11:29:53.822Z,3.10
2018-04-26T11:30:53.810Z,2.90
2018-04-26T11:31:53.721Z,2.90
2018-04-26T11:32:53.712Z,2.70
2018-04-26T11:33:53.700Z,3.00
2018-04-26T11:34:53.690Z,3.10
2018-04-26T11:35:53.679Z,3.20
2018-04-26T11:36:53.665Z,3.10
2018-04-26T11:37:53.659Z,3.70
2018-04-26T11:38:53.639Z,3.40
2018-04-26T11:39:53.630Z,3.60
2018-04-26T11:40:53.626Z,3.50
2018-04-26T11:41:53.606Z,3.40
2018-04-26T11:42:53.598Z,3.50
2018-04-26T11:43:53.585Z,3.90
2018-04-26T11:44:53.583Z,3.80
2018-04-26T11:45:53.564Z,3.90
2018-04-26T11:46:53.549Z,3.90
2018-04-26T11:47:53.543Z,4.20
2018-04-26T11:48:53.548Z,4.00
2018-04-26T11:49:53.516Z,4.00
2018-04-26T11:50:53.519Z,3.90
2018-04-26T11:51:53.500Z,4.40
2018-04-26T11:52:53.489Z,4.40
2018-04-26T11:53:53.482Z,4.50
2018-04-26T11:54:53.470Z,3.70
2018-04-26T11:55:53.446Z,3.80
2018-04-26T11:56:53.438Z,4.00
2018-04-26T11:57:53.420Z,4.30
2018-04-26T11:58:53.434Z,4.50
2018-04-26T11:59:53.399Z,4.30
2018-04-26T12:00:53.388Z,4.50
2018-04-26T12:01:53.379Z,4.90
2018-04-26T12:02:53.389Z,4.60
2018-04-26T12:03:53.354Z,5.10
2018-04-26T12:04:53.340Z,5.00
2018-04-26T12:05:53.319Z,5.20
2018-04-26T12:06:53.313Z,5.40
2018-04-26T12:07:53.299Z,5.40
2018-04-26T12:08:53.295Z,5.70
2018-04-26T12:09:53.270Z,5.20
2018-04-26T12:10:53.259Z,5.60
2018-04-26T12:11:53.251Z,4.90
2018-04-26T12:12:53.232Z,5.50
2018-04-26T12:13:53.213Z,5.40
2018-04-26T12:14:53.206Z,5.10
2018-04-26T12:15:53.198Z,4.60
2018-04-26T12:16:53.182Z,4.80
2018-04-26T12:17:53.156Z,3.80
2018-04-26T12:18:53.152Z,4.20
2018-04-26T12:19:53.130Z,3.70
2018-04-26T12:20:53.112Z,4.50
2018-04-26T12:21:53.102Z,3.90
2018-04-26T12:22:53.083Z,4.30
2018-04-26T12:23:53.079Z,3.90
2018-04-26T12:24:53.069Z,4.20
2018-04-26T12:25:53.041Z,4.60
2018-04-26T12:26:53.040Z,4.60
2018-04-26T12:27:53.013Z,4.70
2018-04-26T12:28:52.997Z,4.60
2018-04-26T12:29:52.984Z,4.70
2018-04-26T12:30:52.969Z,5.20
2018-04-26T12:31:52.951Z,4.90
2018-04-26T12:32:52.942Z,5.00
2018-04-26T12:33:52.920Z,5.00
2018-04-26T12:34:52.911Z,4.70
2018-04-26T12:35:52.901Z,4.40
2018-04-26T12:36:52.878Z,4.30
2018-04-26T12:37:52.876Z,4.70
2018-04-26T12:38:52.849Z,4.70
2018-04-26T12:39:52.834Z,4.10
2018-04-26T12:40:52.827Z,4.10
2018-04-26T12:41:52.815Z,4.10
2018-04-26T12:42:52.798Z,4.00
2018-04-26T12:43:52.788Z,4.00
2018-04-26T12:44:52.781Z,3.90
2018-04-26T12:45:52.758Z,5.00
2018-04-26T12:46:52.742Z,4.40
2018-04-26T12:47:52.730Z,4.80
2018-04-26T12:48:52.716Z,4.50
2018-04-26T12:49:52.720Z,5.00
2018-04-26T12:50:52.687Z,5.00
2018-04-26T12:51:52.689Z,5.70
2018-04-26T12:52:52.670Z,5.10
2018-04-26T12:53:52.662Z,5.50
2018-04-26T12:54:52.638Z,5.20
2018-04-26T12:55:52.624Z,5.10
2018-04-26T12:56:52.624Z,5.60
2018-04-26T12:57:52.605Z,5.40
2018-04-26T12:58:52.588Z,5.50
2018-04-26T12:59:52.580Z,5.60
2018-04-26T13:00:52.571Z,4.90
2018-04-26T13:01:52.548Z,4.90
2018-04-26T13:02:52.538Z,4.70
2018-04-26T13:03:52.529Z,4.70
2018-04-26T13:04:52.527Z,4.20
2018-04-26T13:05:52.506Z,4.30
2018-04-26T13:06:52.488Z,4.20
2018-04-26T13:07:52.504Z,3.40
2018-04-26T13:08:52.468Z,3.50
2018-04-26T13:09:52.457Z,3.10
2018-04-26T13:10:52.442Z,3.00
2018-04-26T13:11:52.428Z,2.40
2018-04-26T13:12:52.497Z,2.20
2018-04-26T13:13:52.407Z,2.60
2018-04-26T13:14:52.395Z,2.20
2018-04-26T13:15:52.381Z,3.00
2018-04-26T13:16:52.372Z,2.40
2018-04-26T13:17:52.358Z,2.40